Islay — FGE2920 — position and weather

sailwx.info

Track history (hours):
 
Tides and Currents Weather Stations Pressure Air Temp Water Temp Dewpoint Dewpoint Depression Visibility Wind Speed Wind Dir Waves Ship Positions

Islay

Last reported at 2017-Sep-02 13:38 UTC. Time now 2017-Sep-22 02:31 UTC.
Position N 46°30' W 001°48'.
Warning: this ship's position is 19 days out of date.

Length 9 m.

Type: Pleasure craft. MMSI: 227623390.

Date/timePositionNaut miles runAvg speedWind from/ knotsBaromVisibWave heightAir tempDewpointWater temp
2017-Sep-02 13:38N 46°30' W 001°48'0 3.8
2017-Sep-02 13:30N 46°30' W 001°48'2 3.4
2017-Sep-02 12:59N 46°28' W 001°46'2 3.6
2017-Sep-02 12:29N 46°27' W 001°45'3 4.9
2017-Sep-02 11:58N 46°24' W 001°43'2 3.9
2017-Sep-02 11:30N 46°26' W 001°43'3 5.9
2017-Sep-02 11:00N 46°28' W 001°47'2 3.8
2017-Sep-02 10:30N 46°29' W 001°49'1 2.6
2017-Sep-02 09:57N 46°27' W 001°48'1 1.5
2017-Sep-02 09:30N 46°28' W 001°48'1 3.0
2017-Sep-02 09:00N 46°29' W 001°47'1 1.4
2017-Sep-02 08:22N 46°30' W 001°48'0 0.0
2017-Sep-01 15:01N 46°30' W 001°48'2 3.2
2017-Sep-01 14:30N 46°28' W 001°48'1 1.8
2017-Sep-01 13:59N 46°29' W 001°47'1 1.5
2017-Sep-01 13:30N 46°29' W 001°48'1 2.3
2017-Sep-01 12:57N 46°30' W 001°48'  
2017-Aug-26 10:11N 46°30' W 001°48'0 0.0
2017-Aug-26 09:59N 46°30' W 001°48'0 0.0
2017-Aug-26 09:28N 46°30' W 001°48'0 0.0
2017-Aug-26 08:58N 46°30' W 001°48'0 0.0
2017-Aug-26 08:28N 46°30' W 001°48'0 0.0
2017-Aug-26 07:58N 46°30' W 001°48'0 0.0
2017-Aug-25 08:37N 46°30' W 001°48'0 0.0
2017-Aug-25 08:28N 46°30' W 001°48'0 0.0
2017-Aug-25 07:58N 46°30' W 001°48'0 0.0
2017-Aug-25 07:28N 46°30' W 001°48'0 0.0
2017-Aug-25 06:58N 46°30' W 001°48'0 0.0
2017-Aug-25 06:28N 46°30' W 001°48'0 0.0
2017-Aug-25 05:58N 46°30' W 001°48'0 0.0
2017-Aug-25 05:28N 46°30' W 001°48'0 0.0
2017-Aug-25 04:58N 46°30' W 001°48'0 0.0
2017-Aug-25 04:28N 46°30' W 001°48'0 0.0
2017-Aug-25 03:58N 46°30' W 001°48'0 0.0
2017-Aug-25 03:28N 46°30' W 001°48'0 0.0
2017-Aug-25 02:58N 46°30' W 001°48'0 0.0
2017-Aug-25 02:28N 46°30' W 001°48'0 0.0
2017-Aug-25 01:58N 46°30' W 001°48'0 0.0
2017-Aug-25 01:28N 46°30' W 001°48'0 0.0
2017-Aug-25 00:58N 46°30' W 001°48'0 0.0
2017-Aug-25 00:28N 46°30' W 001°48'0 0.0
2017-Aug-24 23:58N 46°30' W 001°48'0 0.0
2017-Aug-24 23:28N 46°30' W 001°48'0 0.0
2017-Aug-24 22:58N 46°30' W 001°48'0 0.0
2017-Aug-24 22:28N 46°30' W 001°48'0 0.0
2017-Aug-24 21:58N 46°30' W 001°48'0 0.0
2017-Aug-24 21:25N 46°30' W 001°48'0 0.0
2017-Aug-24 20:58N 46°30' W 001°48'0 0.0
2017-Aug-24 20:28N 46°30' W 001°48'0 0.0
2017-Aug-24 19:58N 46°30' W 001°48'0 0.0
2017-Aug-24 19:28N 46°30' W 001°48'0 0.0
2017-Aug-24 18:58N 46°30' W 001°48'0 0.0
2017-Aug-24 18:28N 46°30' W 001°48'0 0.0
2017-Aug-24 17:58N 46°30' W 001°48'0 0.0
2017-Aug-24 17:28N 46°30' W 001°48'0 0.0
2017-Aug-24 16:55N 46°30' W 001°48'0 0.0
2017-Aug-24 16:28N 46°30' W 001°48'0 0.0
2017-Aug-24 15:58N 46°30' W 001°48'0 0.0
2017-Aug-24 15:28N 46°30' W 001°48'0 0.0
2017-Aug-24 14:58N 46°30' W 001°48'0 0.0
2017-Aug-24 14:28N 46°30' W 001°48'0 0.0
2017-Aug-24 13:58N 46°30' W 001°48'0 0.0
2017-Aug-24 13:28N 46°30' W 001°48'0 0.0
2017-Aug-24 12:58N 46°30' W 001°48'0 0.0
2017-Aug-24 12:28N 46°30' W 001°48'0 0.0
2017-Aug-24 11:58N 46°30' W 001°48'0 0.0
2017-Aug-24 11:28N 46°30' W 001°48'0 0.0
2017-Aug-24 10:58N 46°30' W 001°48'0 0.0
2017-Aug-24 10:28N 46°30' W 001°48'0 0.0
2017-Aug-24 09:58N 46°30' W 001°48'0 0.0
2017-Aug-24 09:28N 46°30' W 001°48'0 0.0
2017-Aug-24 08:58N 46°30' W 001°48'0 0.0
2017-Aug-24 08:28N 46°30' W 001°48'0 0.0
2017-Aug-24 07:58N 46°30' W 001°48'0 0.0
2017-Aug-24 07:28N 46°30' W 001°48'0 0.0
2017-Aug-24 06:58N 46°30' W 001°48'0 0.0
2017-Aug-24 06:28N 46°30' W 001°48'0 0.0
2017-Aug-24 05:58N 46°30' W 001°48'0 0.0
2017-Aug-24 05:28N 46°30' W 001°48'0 0.0
2017-Aug-24 04:58N 46°30' W 001°48'0 0.0
2017-Aug-24 04:28N 46°30' W 001°48'0 0.0
2017-Aug-24 03:58N 46°30' W 001°48'0 0.0
2017-Aug-24 03:28N 46°30' W 001°48'0 0.0
2017-Aug-24 02:58N 46°30' W 001°48'0 0.0
2017-Aug-24 02:28N 46°30' W 001°48'0 0.0
2017-Aug-24 01:58N 46°30' W 001°48'0 0.0
2017-Aug-24 01:28N 46°30' W 001°48'0 0.0
2017-Aug-24 00:58N 46°30' W 001°48'0 0.0
2017-Aug-24 00:28N 46°30' W 001°48'0 0.0
2017-Aug-23 23:58N 46°30' W 001°48'0 0.0
2017-Aug-23 23:28N 46°30' W 001°48'0 0.0
2017-Aug-23 22:58N 46°30' W 001°48'0 0.0
2017-Aug-23 22:28N 46°30' W 001°48'0 0.0
2017-Aug-23 21:58N 46°30' W 001°48'0 0.0
2017-Aug-23 21:28N 46°30' W 001°48'0 0.0
2017-Aug-23 20:58N 46°30' W 001°48'0 0.0
2017-Aug-23 20:28N 46°30' W 001°48'0 0.0
2017-Aug-23 19:58N 46°30' W 001°48'0 0.0
2017-Aug-23 19:28N 46°30' W 001°48'0 0.0
2017-Aug-23 18:58N 46°30' W 001°48'0 0.0
2017-Aug-23 18:28N 46°30' W 001°48'0 0.0
2017-Aug-23 17:58N 46°30' W 001°48'0 0.0
2017-Aug-23 17:28N 46°30' W 001°48'0 0.0
2017-Aug-23 16:58N 46°30' W 001°48'0 0.0
2017-Aug-23 16:28N 46°30' W 001°48'0 0.0
2017-Aug-23 15:58N 46°30' W 001°48'0 0.0
2017-Aug-23 15:28N 46°30' W 001°48'0 0.0
2017-Aug-23 14:58N 46°30' W 001°48'0 0.0
2017-Aug-23 13:58N 46°30' W 001°48'  
Track history (hours):
 
Tides and Currents Weather Stations Pressure Air Temp Water Temp Dewpoint Dewpoint Depression Visibility Wind Speed Wind Dir Waves Ship Positions

Islay

Last reported at 2017-Sep-02 13:38 UTC. Time now 2017-Sep-22 02:31 UTC.
Position N 46°30' W 001°48'.
Warning: this ship's position is 19 days out of date.

Length 9 m.

Type: Pleasure craft. MMSI: 227623390.

Date/timePositionNaut miles runAvg speedWind from/ knotsBaromVisibWave heightAir tempDewpointWater temp
2017-Sep-02 13:38N 46°30' W 001°48'0 3.8
2017-Sep-02 13:30N 46°30' W 001°48'2 3.4
2017-Sep-02 12:59N 46°28' W 001°46'2 3.6
2017-Sep-02 12:29N 46°27' W 001°45'3 4.9
2017-Sep-02 11:58N 46°24' W 001°43'2 3.9
2017-Sep-02 11:30N 46°26' W 001°43'3 5.9
2017-Sep-02 11:00N 46°28' W 001°47'2 3.8
2017-Sep-02 10:30N 46°29' W 001°49'1 2.6
2017-Sep-02 09:57N 46°27' W 001°48'1 1.5
2017-Sep-02 09:30N 46°28' W 001°48'1 3.0
2017-Sep-02 09:00N 46°29' W 001°47'1 1.4
2017-Sep-02 08:22N 46°30' W 001°48'0 0.0
2017-Sep-01 15:01N 46°30' W 001°48'2 3.2
2017-Sep-01 14:30N 46°28' W 001°48'1 1.8
2017-Sep-01 13:59N 46°29' W 001°47'1 1.5
2017-Sep-01 13:30N 46°29' W 001°48'1 2.3
2017-Sep-01 12:57N 46°30' W 001°48'  
2017-Aug-26 10:11N 46°30' W 001°48'0 0.0
2017-Aug-26 09:59N 46°30' W 001°48'0 0.0
2017-Aug-26 09:28N 46°30' W 001°48'0 0.0
2017-Aug-26 08:58N 46°30' W 001°48'0 0.0
2017-Aug-26 08:28N 46°30' W 001°48'0 0.0
2017-Aug-26 07:58N 46°30' W 001°48'0 0.0
2017-Aug-25 08:37N 46°30' W 001°48'0 0.0
2017-Aug-25 08:28N 46°30' W 001°48'0 0.0
2017-Aug-25 07:58N 46°30' W 001°48'0 0.0
2017-Aug-25 07:28N 46°30' W 001°48'0 0.0
2017-Aug-25 06:58N 46°30' W 001°48'0 0.0
2017-Aug-25 06:28N 46°30' W 001°48'0 0.0
2017-Aug-25 05:58N 46°30' W 001°48'0 0.0
2017-Aug-25 05:28N 46°30' W 001°48'0 0.0
2017-Aug-25 04:58N 46°30' W 001°48'0 0.0
2017-Aug-25 04:28N 46°30' W 001°48'0 0.0
2017-Aug-25 03:58N 46°30' W 001°48'0 0.0
2017-Aug-25 03:28N 46°30' W 001°48'0 0.0
2017-Aug-25 02:58N 46°30' W 001°48'0 0.0
2017-Aug-25 02:28N 46°30' W 001°48'0 0.0
2017-Aug-25 01:58N 46°30' W 001°48'0 0.0
2017-Aug-25 01:28N 46°30' W 001°48'0 0.0
2017-Aug-25 00:58N 46°30' W 001°48'0 0.0
2017-Aug-25 00:28N 46°30' W 001°48'0 0.0
2017-Aug-24 23:58N 46°30' W 001°48'0 0.0
2017-Aug-24 23:28N 46°30' W 001°48'0 0.0
2017-Aug-24 22:58N 46°30' W 001°48'0 0.0
2017-Aug-24 22:28N 46°30' W 001°48'0 0.0
2017-Aug-24 21:58N 46°30' W 001°48'0 0.0
2017-Aug-24 21:25N 46°30' W 001°48'0 0.0
2017-Aug-24 20:58N 46°30' W 001°48'0 0.0
2017-Aug-24 20:28N 46°30' W 001°48'0 0.0
2017-Aug-24 19:58N 46°30' W 001°48'0 0.0
2017-Aug-24 19:28N 46°30' W 001°48'0 0.0
2017-Aug-24 18:58N 46°30' W 001°48'0 0.0
2017-Aug-24 18:28N 46°30' W 001°48'0 0.0
2017-Aug-24 17:58N 46°30' W 001°48'0 0.0
2017-Aug-24 17:28N 46°30' W 001°48'0 0.0
2017-Aug-24 16:55N 46°30' W 001°48'0 0.0
2017-Aug-24 16:28N 46°30' W 001°48'0 0.0
2017-Aug-24 15:58N 46°30' W 001°48'0 0.0
2017-Aug-24 15:28N 46°30' W 001°48'0 0.0
2017-Aug-24 14:58N 46°30' W 001°48'0 0.0
2017-Aug-24 14:28N 46°30' W 001°48'0 0.0
2017-Aug-24 13:58N 46°30' W 001°48'0 0.0
2017-Aug-24 13:28N 46°30' W 001°48'0 0.0
2017-Aug-24 12:58N 46°30' W 001°48'0 0.0
2017-Aug-24 12:28N 46°30' W 001°48'0 0.0
2017-Aug-24 11:58N 46°30' W 001°48'0 0.0
2017-Aug-24 11:28N 46°30' W 001°48'0 0.0
2017-Aug-24 10:58N 46°30' W 001°48'0 0.0
2017-Aug-24 10:28N 46°30' W 001°48'0 0.0
2017-Aug-24 09:58N 46°30' W 001°48'0 0.0
2017-Aug-24 09:28N 46°30' W 001°48'0 0.0
2017-Aug-24 08:58N 46°30' W 001°48'0 0.0
2017-Aug-24 08:28N 46°30' W 001°48'0 0.0
2017-Aug-24 07:58N 46°30' W 001°48'0 0.0
2017-Aug-24 07:28N 46°30' W 001°48'0 0.0
2017-Aug-24 06:58N 46°30' W 001°48'0 0.0
2017-Aug-24 06:28N 46°30' W 001°48'0 0.0
2017-Aug-24 05:58N 46°30' W 001°48'0 0.0
2017-Aug-24 05:28N 46°30' W 001°48'0 0.0
2017-Aug-24 04:58N 46°30' W 001°48'0 0.0
2017-Aug-24 04:28N 46°30' W 001°48'0 0.0
2017-Aug-24 03:58N 46°30' W 001°48'0 0.0
2017-Aug-24 03:28N 46°30' W 001°48'0 0.0
2017-Aug-24 02:58N 46°30' W 001°48'0 0.0
2017-Aug-24 02:28N 46°30' W 001°48'0 0.0
2017-Aug-24 01:58N 46°30' W 001°48'0 0.0
2017-Aug-24 01:28N 46°30' W 001°48'0 0.0
2017-Aug-24 00:58N 46°30' W 001°48'0 0.0
2017-Aug-24 00:28N 46°30' W 001°48'0 0.0
2017-Aug-23 23:58N 46°30' W 001°48'0 0.0
2017-Aug-23 23:28N 46°30' W 001°48'0 0.0
2017-Aug-23 22:58N 46°30' W 001°48'0 0.0
2017-Aug-23 22:28N 46°30' W 001°48'0 0.0
2017-Aug-23 21:58N 46°30' W 001°48'0 0.0
2017-Aug-23 21:28N 46°30' W 001°48'0 0.0
2017-Aug-23 20:58N 46°30' W 001°48'0 0.0
2017-Aug-23 20:28N 46°30' W 001°48'0 0.0
2017-Aug-23 19:58N 46°30' W 001°48'0 0.0
2017-Aug-23 19:28N 46°30' W 001°48'0 0.0
2017-Aug-23 18:58N 46°30' W 001°48'0 0.0
2017-Aug-23 18:28N 46°30' W 001°48'0 0.0
2017-Aug-23 17:58N 46°30' W 001°48'0 0.0
2017-Aug-23 17:28N 46°30' W 001°48'0 0.0
2017-Aug-23 16:58N 46°30' W 001°48'0 0.0
2017-Aug-23 16:28N 46°30' W 001°48'0 0.0
2017-Aug-23 15:58N 46°30' W 001°48'0 0.0
2017-Aug-23 15:28N 46°30' W 001°48'0 0.0
2017-Aug-23 14:58N 46°30' W 001°48'0 0.0
2017-Aug-23 13:58N 46°30' W 001°48'  

Dump ship's entire track history